Terminal Aerodrome Forecast
Issued by NWS

Home | Current Version | Previous Version | Text Only | Print | Product List | Glossary On
Versions: 1 2 3 4 5 6 7 8 9 10 11 12 13 14 15 16 17 18
000
FTUS41 KBTV 050217 AAA
TAFSLK
TAF AMD
KSLK 050217Z 0502/0524 03003KT P6SM SCT120
     FM050500 VRB03KT P6SM BKN080
     FM050800 14004KT P6SM VCSH OVC035
     FM050900 14004KT 4SM -SN BR OVC035
     FM051000 14004KT 1SM -SN BR OVC025
     FM051300 20005KT 1SM -SN BR OVC015
     FM052100 26004KT 4SM -SHSN BR OVC012=

USA.gov is the U.S. government's official web portal to all federal, state and local government web resources and services.